Forks, WA

5:49 PM PDT on September 30, 2014 (GMT -0700)
Quillayute | Change Station
CLOSE
Current Station
Airport
Location: Quillayute,
Elevation: 194 ft
Nearby Weather Stations

Elev 194 ft 47.94 °N, 124.56 °W | Updated 56 minutes ago

Partly Cloudy
Partly Cloudy
61 °F
Feels Like 61 °F
N
8
Wind Variable Wind from WNW

Today
High -- | Low -- °F
--% Chance of Precip.
Yesterday
High -- | Low -- °F
Precip. -- in
7:15 AM 6:58 PM
Waxing Crescent, 41% visible
Pressure 30.14 in
Visibility 5.0 miles
Clouds Scattered Clouds 2600 ft
Dew Point 51 °F
Humidity 70%
Rainfall 0.00 in
Snow Depth 0 in , 0 in , 0 in
UV 1 out of 12
Pollen .20 out of 12
Air Quality Not available.
Flu Activity Not available.
METAR KUIL 302353Z AUTO 29007KT 5SM HZ SCT026 16/11 A3014 RMK AO2 SLP207 T01610106 10183 20156 51002

More Conditions Fewer Conditions

Pressure 30.14 in
Visibility 5.0 miles
Clouds Scattered Clouds 2600 ft
Dew Point 51 °F
Humidity 70%
Rainfall 0.00 in
Snow Depth 0 in , 0 in , 0 in
UV 1 out of 12
Pollen .20 out of 12
Air Quality Not available.
Flu Activity Not available.
METAR KUIL 302353Z AUTO 29007KT 5SM HZ SCT026 16/11 A3014 RMK AO2 SLP207 T01610106 10183 20156 51002

More Conditions Fewer Conditions

10-Day Weather Forecast

Almanac

Astronomy

Sep. 30, 2014 Rise Set
Actual Time 7:15 AM PDT 6:58 PM PDT
Civil Twilight 6:44 AM PDT 7:29 PM PDT
Nautical Twilight 6:08 AM PDT 8:05 PM PDT
Astronomical Twilight 5:32 AM PDT 8:42 PM PDT
Moon 1:49 PM PDT (9/30) 11:14 PM PDT (9/30)
Length of Visible Light 12h 44m
Length of Day
11h 43m
Tomorrow will be 3m 26s shorter.
Waxing Crescent, 41% of the Moon is Illuminated
Today
Waxing Crescent
Oct 1
First Quarter
Oct 8
Full
Oct 15
Last Quarter
Oct 23
New

Today's Extremes

State Highs State Lows

Community

WunderPhotos

Upload Photos

1,757,801 photos uploaded!

Nearby

Snow Depth

Station Depth Elevation
Green Lake 0 in 6000 ft
White Pass E.S. 0 in 4500 ft
Sasse Ridge 0 in 4200 ft
Touchet 0 in 5530 ft
Olallie Meadows 3 in 3700 ft

Earthquake Activity

City Distance Mag. Time & Date
No recent earthquake activity has been reported nearby.
Minimum magnitude displayed is 2.5.

Coastal Water Temperatures

Place Temperature
La Push, WA 57.9 °F
Westport, WA 60.1 °F
Port Angeles, WA 52.0 °F
Astoria, OR 66.0 °F

Nearby Weather Stations